sensor_id;sensor_type;location;lat;lon;timestamp;P1;durP1;ratioP1;P2;durP2;ratioP2
26936;SDS011;14495;48.116;11.676;2022-10-01T00:01:56;8.68;;;4.60;;
26936;SDS011;14495;48.116;11.676;2022-10-01T00:04:22;7.00;;;4.85;;
26936;SDS011;14495;48.116;11.676;2022-10-01T00:06:47;6.95;;;5.15;;
26936;SDS011;14495;48.116;11.676;2022-10-01T00:09:12;8.27;;;4.95;;
26936;SDS011;14495;48.116;11.676;2022-10-01T00:11:38;6.75;;;4.88;;
26936;SDS011;14495;48.116;11.676;2022-10-01T00:14:03;10.65;;;5.00;;
26936;SDS011;14495;48.116;11.676;2022-10-01T00:16:29;8.10;;;4.75;;
26936;SDS011;14495;48.116;11.676;2022-10-01T00:18:55;6.78;;;4.65;;
26936;SDS011;14495;48.116;11.676;2022-10-01T00:21:28;8.57;;;5.13;;
26936;SDS011;14495;48.116;11.676;2022-10-01T00:23:56;7.40;;;4.97;;
26936;SDS011;14495;48.116;11.676;2022-10-01T00:26:25;6.88;;;4.80;;
26936;SDS011;14495;48.116;11.676;2022-10-01T00:28:52;8.10;;;5.18;;
26936;SDS011;14495;48.116;11.676;2022-10-01T00:31:19;7.30;;;5.00;;
26936;SDS011;14495;48.116;11.676;2022-10-01T00:33:45;10.00;;;5.13;;
26936;SDS011;14495;48.116;11.676;2022-10-01T00:36:11;7.72;;;4.18;;
26936;SDS011;14495;48.116;11.676;2022-10-01T00:38:37;6.10;;;4.18;;
26936;SDS011;14495;48.116;11.676;2022-10-01T00:41:06;7.30;;;4.85;;
26936;SDS011;14495;48.116;11.676;2022-10-01T00:43:33;6.82;;;4.53;;
26936;SDS011;14495;48.116;11.676;2022-10-01T00:49:00;6.43;;;4.22;;
26936;SDS011;14495;48.116;11.676;2022-10-01T00:51:35;7.38;;;4.78;;
26936;SDS011;14495;48.116;11.676;2022-10-01T00:54:06;9.23;;;4.55;;
26936;SDS011;14495;48.116;11.676;2022-10-01T00:56:34;8.23;;;5.55;;
26936;SDS011;14495;48.116;11.676;2022-10-01T00:59:00;8.70;;;5.30;;
26936;SDS011;14495;48.116;11.676;2022-10-01T01:01:27;10.25;;;5.68;;
26936;SDS011;14495;48.116;11.676;2022-10-01T01:03:52;10.15;;;6.15;;
26936;SDS011;14495;48.116;11.676;2022-10-01T01:06:19;12.10;;;6.32;;
26936;SDS011;14495;48.116;11.676;2022-10-01T01:08:44;9.98;;;6.07;;
26936;SDS011;14495;48.116;11.676;2022-10-01T01:11:19;11.45;;;6.75;;
26936;SDS011;14495;48.116;11.676;2022-10-01T01:13:56;10.27;;;6.72;;
26936;SDS011;14495;48.116;11.676;2022-10-01T01:16:32;11.35;;;6.63;;
26936;SDS011;14495;48.116;11.676;2022-10-01T01:22:12;10.02;;;6.32;;
26936;SDS011;14495;48.116;11.676;2022-10-01T01:27:27;10.85;;;6.53;;
26936;SDS011;14495;48.116;11.676;2022-10-01T01:32:38;13.07;;;6.95;;
26936;SDS011;14495;48.116;11.676;2022-10-01T01:35:57;12.13;;;7.20;;
26936;SDS011;14495;48.116;11.676;2022-10-01T01:38:10;11.93;;;7.10;;
26936;SDS011;14495;48.116;11.676;2022-10-01T01:40:40;12.57;;;7.47;;
26936;SDS011;14495;48.116;11.676;2022-10-01T01:43:10;13.93;;;7.85;;
26936;SDS011;14495;48.116;11.676;2022-10-01T01:45:42;15.35;;;6.88;;
26936;SDS011;14495;48.116;11.676;2022-10-01T01:48:09;13.38;;;7.35;;
26936;SDS011;14495;48.116;11.676;2022-10-01T01:50:39;9.82;;;7.00;;
26936;SDS011;14495;48.116;11.676;2022-10-01T01:53:08;12.55;;;6.75;;
26936;SDS011;14495;48.116;11.676;2022-10-01T01:55:35;12.15;;;6.88;;
26936;SDS011;14495;48.116;11.676;2022-10-01T01:58:01;11.75;;;7.50;;
26936;SDS011;14495;48.116;11.676;2022-10-01T02:00:26;13.00;;;7.50;;
26936;SDS011;14495;48.116;11.676;2022-10-01T02:02:52;13.52;;;7.43;;
26936;SDS011;14495;48.116;11.676;2022-10-01T02:05:21;10.98;;;6.97;;
26936;SDS011;14495;48.116;11.676;2022-10-01T02:07:57;10.45;;;6.68;;
26936;SDS011;14495;48.116;11.676;2022-10-01T02:10:42;10.60;;;6.60;;
26936;SDS011;14495;48.116;11.676;2022-10-01T02:16:01;11.55;;;7.50;;
26936;SDS011;14495;48.116;11.676;2022-10-01T02:25:00;10.25;;;6.72;;
26936;SDS011;14495;48.116;11.676;2022-10-01T02:27:29;12.98;;;7.07;;
26936;SDS011;14495;48.116;11.676;2022-10-01T02:29:56;11.65;;;7.20;;
26936;SDS011;14495;48.116;11.676;2022-10-01T02:32:25;10.90;;;6.72;;
26936;SDS011;14495;48.116;11.676;2022-10-01T02:34:55;10.70;;;6.78;;
26936;SDS011;14495;48.116;11.676;2022-10-01T02:37:23;10.90;;;6.10;;
26936;SDS011;14495;48.116;11.676;2022-10-01T02:39:51;10.10;;;6.03;;
26936;SDS011;14495;48.116;11.676;2022-10-01T02:42:20;11.70;;;7.18;;
26936;SDS011;14495;48.116;11.676;2022-10-01T02:44:50;10.57;;;6.07;;
26936;SDS011;14495;48.116;11.676;2022-10-01T02:47:19;12.25;;;6.43;;
26936;SDS011;14495;48.116;11.676;2022-10-01T02:49:47;9.43;;;6.03;;
26936;SDS011;14495;48.116;11.676;2022-10-01T02:52:49;11.35;;;6.75;;
26936;SDS011;14495;48.116;11.676;2022-10-01T02:55:12;8.50;;;5.57;;
26936;SDS011;14495;48.116;11.676;2022-10-01T02:57:41;9.90;;;5.70;;
26936;SDS011;14495;48.116;11.676;2022-10-01T03:00:11;12.13;;;6.10;;
26936;SDS011;14495;48.116;11.676;2022-10-01T03:05:04;9.75;;;6.10;;
26936;SDS011;14495;48.116;11.676;2022-10-01T03:07:31;9.32;;;5.53;;
26936;SDS011;14495;48.116;11.676;2022-10-01T03:09:59;10.60;;;5.65;;
26936;SDS011;14495;48.116;11.676;2022-10-01T03:12:24;9.93;;;5.80;;
26936;SDS011;14495;48.116;11.676;2022-10-01T03:14:50;11.27;;;6.28;;
26936;SDS011;14495;48.116;11.676;2022-10-01T03:17:16;13.20;;;6.47;;
26936;SDS011;14495;48.116;11.676;2022-10-01T03:19:42;8.82;;;6.00;;
26936;SDS011;14495;48.116;11.676;2022-10-01T03:22:08;10.38;;;6.13;;
26936;SDS011;14495;48.116;11.676;2022-10-01T03:24:37;12.88;;;6.78;;
26936;SDS011;14495;48.116;11.676;2022-10-01T03:27:02;13.57;;;5.60;;
26936;SDS011;14495;48.116;11.676;2022-10-01T03:29:27;7.72;;;5.40;;
26936;SDS011;14495;48.116;11.676;2022-10-01T03:31:53;12.23;;;6.38;;
26936;SDS011;14495;48.116;11.676;2022-10-01T03:34:18;8.45;;;5.85;;
26936;SDS011;14495;48.116;11.676;2022-10-01T03:36:44;10.30;;;6.30;;
26936;SDS011;14495;48.116;11.676;2022-10-01T03:39:09;11.73;;;5.75;;
26936;SDS011;14495;48.116;11.676;2022-10-01T03:41:35;10.93;;;5.85;;
26936;SDS011;14495;48.116;11.676;2022-10-01T03:44:01;9.77;;;6.22;;
26936;SDS011;14495;48.116;11.676;2022-10-01T03:46:26;10.23;;;6.00;;
26936;SDS011;14495;48.116;11.676;2022-10-01T03:48:52;10.10;;;5.88;;
26936;SDS011;14495;48.116;11.676;2022-10-01T03:51:19;12.63;;;6.55;;
26936;SDS011;14495;48.116;11.676;2022-10-01T03:53:45;8.90;;;5.53;;
26936;SDS011;14495;48.116;11.676;2022-10-01T03:56:14;9.95;;;5.82;;
26936;SDS011;14495;48.116;11.676;2022-10-01T03:58:40;11.18;;;6.53;;
26936;SDS011;14495;48.116;11.676;2022-10-01T04:01:05;10.82;;;6.47;;
26936;SDS011;14495;48.116;11.676;2022-10-01T04:03:30;11.38;;;6.57;;
26936;SDS011;14495;48.116;11.676;2022-10-01T04:05:56;9.27;;;6.25;;
26936;SDS011;14495;48.116;11.676;2022-10-01T04:08:22;9.93;;;6.10;;
26936;SDS011;14495;48.116;11.676;2022-10-01T04:10:48;14.15;;;6.93;;
26936;SDS011;14495;48.116;11.676;2022-10-01T04:13:13;12.88;;;7.05;;
26936;SDS011;14495;48.116;11.676;2022-10-01T04:15:39;12.00;;;6.30;;
26936;SDS011;14495;48.116;11.676;2022-10-01T04:18:05;12.15;;;7.22;;
26936;SDS011;14495;48.116;11.676;2022-10-01T04:20:34;10.43;;;6.32;;
26936;SDS011;14495;48.116;11.676;2022-10-01T04:23:01;11.27;;;6.07;;
26936;SDS011;14495;48.116;11.676;2022-10-01T04:25:27;11.68;;;6.88;;
26936;SDS011;14495;48.116;11.676;2022-10-01T04:28:02;8.43;;;5.80;;
26936;SDS011;14495;48.116;11.676;2022-10-01T04:30:31;11.68;;;6.78;;
26936;SDS011;14495;48.116;11.676;2022-10-01T04:32:58;11.60;;;6.80;;
26936;SDS011;14495;48.116;11.676;2022-10-01T04:35:23;15.13;;;6.95;;
26936;SDS011;14495;48.116;11.676;2022-10-01T04:37:59;11.95;;;6.55;;
26936;SDS011;14495;48.116;11.676;2022-10-01T04:40:31;10.60;;;6.80;;
26936;SDS011;14495;48.116;11.676;2022-10-01T04:42:58;14.13;;;6.95;;
26936;SDS011;14495;48.116;11.676;2022-10-01T04:45:24;10.80;;;6.70;;
26936;SDS011;14495;48.116;11.676;2022-10-01T04:47:50;12.90;;;6.32;;
26936;SDS011;14495;48.116;11.676;2022-10-01T04:50:17;12.45;;;7.13;;
26936;SDS011;14495;48.116;11.676;2022-10-01T04:52:44;11.30;;;6.43;;
26936;SDS011;14495;48.116;11.676;2022-10-01T04:55:10;14.43;;;7.22;;
26936;SDS011;14495;48.116;11.676;2022-10-01T04:57:35;11.38;;;6.57;;
26936;SDS011;14495;48.116;11.676;2022-10-01T05:00:03;16.98;;;6.95;;
26936;SDS011;14495;48.116;11.676;2022-10-01T05:02:30;13.85;;;7.28;;
26936;SDS011;14495;48.116;11.676;2022-10-01T05:04:57;16.00;;;7.78;;
26936;SDS011;14495;48.116;11.676;2022-10-01T05:07:22;15.85;;;7.55;;
26936;SDS011;14495;48.116;11.676;2022-10-01T05:09:47;15.05;;;7.47;;
26936;SDS011;14495;48.116;11.676;2022-10-01T05:12:13;11.27;;;6.55;;
26936;SDS011;14495;48.116;11.676;2022-10-01T05:14:38;16.75;;;7.28;;
26936;SDS011;14495;48.116;11.676;2022-10-01T05:17:03;13.55;;;6.80;;
26936;SDS011;14495;48.116;11.676;2022-10-01T05:19:31;13.18;;;5.97;;
26936;SDS011;14495;48.116;11.676;2022-10-01T05:21:56;13.63;;;7.03;;
26936;SDS011;14495;48.116;11.676;2022-10-01T05:24:21;11.57;;;6.82;;
26936;SDS011;14495;48.116;11.676;2022-10-01T05:26:47;8.63;;;5.45;;
26936;SDS011;14495;48.116;11.676;2022-10-01T05:29:12;10.68;;;5.88;;
26936;SDS011;14495;48.116;11.676;2022-10-01T05:31:39;17.33;;;7.80;;
26936;SDS011;14495;48.116;11.676;2022-10-01T05:34:08;14.80;;;5.95;;
26936;SDS011;14495;48.116;11.676;2022-10-01T05:36:33;10.95;;;6.10;;
26936;SDS011;14495;48.116;11.676;2022-10-01T05:38:59;10.52;;;6.10;;
26936;SDS011;14495;48.116;11.676;2022-10-01T05:41:24;14.27;;;6.03;;
26936;SDS011;14495;48.116;11.676;2022-10-01T05:43:49;11.00;;;6.43;;
26936;SDS011;14495;48.116;11.676;2022-10-01T05:46:15;11.23;;;6.55;;
26936;SDS011;14495;48.116;11.676;2022-10-01T05:48:40;9.30;;;6.22;;
26936;SDS011;14495;48.116;11.676;2022-10-01T05:51:06;9.77;;;5.57;;
26936;SDS011;14495;48.116;11.676;2022-10-01T05:53:33;11.60;;;6.20;;
26936;SDS011;14495;48.116;11.676;2022-10-01T05:56:01;11.95;;;6.80;;
26936;SDS011;14495;48.116;11.676;2022-10-01T05:58:27;11.70;;;6.53;;
26936;SDS011;14495;48.116;11.676;2022-10-01T06:00:53;13.38;;;6.97;;
26936;SDS011;14495;48.116;11.676;2022-10-01T06:03:19;11.30;;;7.20;;
26936;SDS011;14495;48.116;11.676;2022-10-01T06:05:45;12.05;;;6.45;;
26936;SDS011;14495;48.116;11.676;2022-10-01T06:08:10;9.20;;;5.50;;
26936;SDS011;14495;48.116;11.676;2022-10-01T06:10:36;10.27;;;5.88;;
26936;SDS011;14495;48.116;11.676;2022-10-01T06:13:02;11.05;;;5.65;;
26936;SDS011;14495;48.116;11.676;2022-10-01T06:15:32;9.95;;;5.40;;
26936;SDS011;14495;48.116;11.676;2022-10-01T06:18:05;9.70;;;5.82;;
26936;SDS011;14495;48.116;11.676;2022-10-01T06:20:32;7.15;;;5.00;;
26936;SDS011;14495;48.116;11.676;2022-10-01T06:22:58;8.77;;;5.20;;
26936;SDS011;14495;48.116;11.676;2022-10-01T06:25:24;7.55;;;4.80;;
26936;SDS011;14495;48.116;11.676;2022-10-01T06:27:56;8.63;;;4.47;;
26936;SDS011;14495;48.116;11.676;2022-10-01T06:30:26;7.50;;;4.63;;
26936;SDS011;14495;48.116;11.676;2022-10-01T06:35:30;6.43;;;4.38;;
26936;SDS011;14495;48.116;11.676;2022-10-01T06:37:57;7.68;;;4.72;;
26936;SDS011;14495;48.116;11.676;2022-10-01T06:40:23;7.60;;;4.28;;
26936;SDS011;14495;48.116;11.676;2022-10-01T06:42:48;6.28;;;4.90;;
26936;SDS011;14495;48.116;11.676;2022-10-01T06:45:15;6.53;;;4.32;;
26936;SDS011;14495;48.116;11.676;2022-10-01T06:47:41;8.18;;;4.60;;
26936;SDS011;14495;48.116;11.676;2022-10-01T06:50:07;6.55;;;4.43;;
26936;SDS011;14495;48.116;11.676;2022-10-01T06:52:33;6.57;;;4.32;;
26936;SDS011;14495;48.116;11.676;2022-10-01T06:55:13;10.02;;;3.63;;
26936;SDS011;14495;48.116;11.676;2022-10-01T06:57:40;12.20;;;4.25;;
26936;SDS011;14495;48.116;11.676;2022-10-01T07:00:05;6.72;;;4.13;;
26936;SDS011;14495;48.116;11.676;2022-10-01T07:02:31;6.90;;;4.28;;
26936;SDS011;14495;48.116;11.676;2022-10-01T07:04:57;6.28;;;3.92;;
26936;SDS011;14495;48.116;11.676;2022-10-01T07:07:23;5.88;;;3.42;;
26936;SDS011;14495;48.116;11.676;2022-10-01T07:09:52;12.57;;;4.30;;
26936;SDS011;14495;48.116;11.676;2022-10-01T07:12:17;5.57;;;3.55;;
26936;SDS011;14495;48.116;11.676;2022-10-01T07:14:43;5.35;;;3.28;;
26936;SDS011;14495;48.116;11.676;2022-10-01T07:17:09;5.05;;;3.38;;
26936;SDS011;14495;48.116;11.676;2022-10-01T07:19:34;5.68;;;3.30;;
26936;SDS011;14495;48.116;11.676;2022-10-01T07:21:59;7.28;;;3.13;;
26936;SDS011;14495;48.116;11.676;2022-10-01T07:24:24;6.47;;;3.78;;
26936;SDS011;14495;48.116;11.676;2022-10-01T07:26:50;4.68;;;3.15;;
26936;SDS011;14495;48.116;11.676;2022-10-01T07:29:15;5.57;;;2.78;;
26936;SDS011;14495;48.116;11.676;2022-10-01T07:31:41;7.43;;;3.13;;
26936;SDS011;14495;48.116;11.676;2022-10-01T07:34:06;5.13;;;3.33;;
26936;SDS011;14495;48.116;11.676;2022-10-01T07:36:31;5.00;;;2.95;;
26936;SDS011;14495;48.116;11.676;2022-10-01T07:38:58;4.78;;;2.90;;
26936;SDS011;14495;48.116;11.676;2022-10-01T07:41:24;4.20;;;2.65;;
26936;SDS011;14495;48.116;11.676;2022-10-01T07:43:49;4.70;;;2.72;;
26936;SDS011;14495;48.116;11.676;2022-10-01T07:46:16;4.57;;;2.63;;
26936;SDS011;14495;48.116;11.676;2022-10-01T07:48:41;2.90;;;2.10;;
26936;SDS011;14495;48.116;11.676;2022-10-01T07:51:10;2.42;;;2.00;;
26936;SDS011;14495;48.116;11.676;2022-10-01T07:53:35;3.28;;;2.33;;
26936;SDS011;14495;48.116;11.676;2022-10-01T07:56:01;2.67;;;2.10;;
26936;SDS011;14495;48.116;11.676;2022-10-01T07:58:26;4.10;;;2.20;;
26936;SDS011;14495;48.116;11.676;2022-10-01T08:00:51;2.97;;;2.28;;
26936;SDS011;14495;48.116;11.676;2022-10-01T08:03:22;4.00;;;2.10;;
26936;SDS011;14495;48.116;11.676;2022-10-01T08:05:47;3.78;;;2.15;;
26936;SDS011;14495;48.116;11.676;2022-10-01T08:08:13;3.00;;;2.17;;
26936;SDS011;14495;48.116;11.676;2022-10-01T08:10:39;3.88;;;1.90;;
26936;SDS011;14495;48.116;11.676;2022-10-01T08:13:14;2.42;;;2.08;;
26936;SDS011;14495;48.116;11.676;2022-10-01T08:15:42;2.45;;;1.77;;
26936;SDS011;14495;48.116;11.676;2022-10-01T08:18:09;2.97;;;2.05;;
26936;SDS011;14495;48.116;11.676;2022-10-01T08:20:35;1.90;;;1.40;;
26936;SDS011;14495;48.116;11.676;2022-10-01T08:23:03;2.78;;;1.65;;
26936;SDS011;14495;48.116;11.676;2022-10-01T08:25:34;2.67;;;1.25;;
26936;SDS011;14495;48.116;11.676;2022-10-01T08:28:00;1.13;;;1.00;;
26936;SDS011;14495;48.116;11.676;2022-10-01T08:30:26;1.50;;;1.10;;
26936;SDS011;14495;48.116;11.676;2022-10-01T08:32:53;1.58;;;1.08;;
26936;SDS011;14495;48.116;11.676;2022-10-01T08:35:19;2.22;;;1.27;;
26936;SDS011;14495;48.116;11.676;2022-10-01T08:37:45;1.40;;;1.10;;
26936;SDS011;14495;48.116;11.676;2022-10-01T08:40:10;2.10;;;0.98;;
26936;SDS011;14495;48.116;11.676;2022-10-01T08:45:12;1.75;;;1.15;;
26936;SDS011;14495;48.116;11.676;2022-10-01T08:47:42;3.10;;;1.33;;
26936;SDS011;14495;48.116;11.676;2022-10-01T08:50:24;1.85;;;1.08;;
26936;SDS011;14495;48.116;11.676;2022-10-01T08:52:58;2.08;;;1.15;;
26936;SDS011;14495;48.116;11.676;2022-10-01T08:55:27;1.35;;;0.93;;
26936;SDS011;14495;48.116;11.676;2022-10-01T08:58:01;1.50;;;1.10;;
26936;SDS011;14495;48.116;11.676;2022-10-01T09:00:29;1.00;;;0.90;;
26936;SDS011;14495;48.116;11.676;2022-10-01T09:02:58;1.60;;;0.90;;
26936;SDS011;14495;48.116;11.676;2022-10-01T09:05:45;1.20;;;0.90;;
26936;SDS011;14495;48.116;11.676;2022-10-01T09:11:20;1.65;;;0.90;;
26936;SDS011;14495;48.116;11.676;2022-10-01T09:22:46;2.30;;;0.80;;
26936;SDS011;14495;48.116;11.676;2022-10-01T09:25:25;1.50;;;1.00;;
26936;SDS011;14495;48.116;11.676;2022-10-01T09:30:41;1.10;;;0.88;;
26936;SDS011;14495;48.116;11.676;2022-10-01T09:38:15;1.30;;;0.90;;
26936;SDS011;14495;48.116;11.676;2022-10-01T09:40:47;1.95;;;0.90;;
26936;SDS011;14495;48.116;11.676;2022-10-01T09:43:16;1.10;;;0.70;;
26936;SDS011;14495;48.116;11.676;2022-10-01T09:45:44;1.75;;;0.95;;
26936;SDS011;14495;48.116;11.676;2022-10-01T09:48:28;1.20;;;0.80;;
26936;SDS011;14495;48.116;11.676;2022-10-01T09:53:35;1.38;;;0.73;;
26936;SDS011;14495;48.116;11.676;2022-10-01T09:56:09;2.35;;;1.20;;
26936;SDS011;14495;48.116;11.676;2022-10-01T09:58:38;1.00;;;0.90;;
26936;SDS011;14495;48.116;11.676;2022-10-01T10:01:10;1.05;;;0.80;;
26936;SDS011;14495;48.116;11.676;2022-10-01T10:03:55;1.00;;;0.80;;
26936;SDS011;14495;48.116;11.676;2022-10-01T10:06:25;1.42;;;0.90;;
26936;SDS011;14495;48.116;11.676;2022-10-01T10:08:54;0.98;;;0.75;;
26936;SDS011;14495;48.116;11.676;2022-10-01T10:11:22;0.80;;;0.70;;
26936;SDS011;14495;48.116;11.676;2022-10-01T10:13:51;1.42;;;0.90;;
26936;SDS011;14495;48.116;11.676;2022-10-01T10:16:27;1.83;;;0.90;;
26936;SDS011;14495;48.116;11.676;2022-10-01T10:21:28;1.08;;;0.90;;
26936;SDS011;14495;48.116;11.676;2022-10-01T10:23:58;1.08;;;0.95;;
26936;SDS011;14495;48.116;11.676;2022-10-01T10:26:27;1.73;;;1.00;;
26936;SDS011;14495;48.116;11.676;2022-10-01T10:29:03;1.80;;;1.10;;
26936;SDS011;14495;48.116;11.676;2022-10-01T10:31:41;1.80;;;1.00;;
26936;SDS011;14495;48.116;11.676;2022-10-01T10:36:39;2.88;;;1.50;;
26936;SDS011;14495;48.116;11.676;2022-10-01T10:39:13;1.85;;;1.23;;
26936;SDS011;14495;48.116;11.676;2022-10-01T10:41:42;3.03;;;0.98;;
26936;SDS011;14495;48.116;11.676;2022-10-01T10:44:11;1.70;;;1.17;;
26936;SDS011;14495;48.116;11.676;2022-10-01T10:46:40;1.58;;;1.13;;
26936;SDS011;14495;48.116;11.676;2022-10-01T10:49:14;13.30;;;5.57;;
26936;SDS011;14495;48.116;11.676;2022-10-01T10:51:46;5.65;;;2.65;;
26936;SDS011;14495;48.116;11.676;2022-10-01T10:57:12;9.80;;;4.43;;
26936;SDS011;14495;48.116;11.676;2022-10-01T11:00:01;22.38;;;11.27;;
26936;SDS011;14495;48.116;11.676;2022-10-01T11:02:36;12.43;;;7.90;;
26936;SDS011;14495;48.116;11.676;2022-10-01T11:05:15;6.25;;;4.68;;
26936;SDS011;14495;48.116;11.676;2022-10-01T11:07:43;6.65;;;3.15;;
26936;SDS011;14495;48.116;11.676;2022-10-01T11:13:13;3.28;;;2.50;;
26936;SDS011;14495;48.116;11.676;2022-10-01T11:21:09;8.02;;;3.85;;
26936;SDS011;14495;48.116;11.676;2022-10-01T11:26:56;6.65;;;3.25;;
26936;SDS011;14495;48.116;11.676;2022-10-01T11:40:48;2.63;;;1.40;;
26936;SDS011;14495;48.116;11.676;2022-10-01T11:43:20;1.50;;;1.10;;
26936;SDS011;14495;48.116;11.676;2022-10-01T11:45:52;3.67;;;1.85;;
26936;SDS011;14495;48.116;11.676;2022-10-01T11:48:27;1.70;;;1.27;;
26936;SDS011;14495;48.116;11.676;2022-10-01T11:51:04;2.67;;;1.83;;
26936;SDS011;14495;48.116;11.676;2022-10-01T11:53:37;3.45;;;1.77;;
26936;SDS011;14495;48.116;11.676;2022-10-01T11:56:16;1.80;;;1.20;;
26936;SDS011;14495;48.116;11.676;2022-10-01T11:59:16;2.30;;;1.50;;
26936;SDS011;14495;48.116;11.676;2022-10-01T12:07:01;2.85;;;1.10;;
26936;SDS011;14495;48.116;11.676;2022-10-01T12:12:14;4.10;;;1.58;;
26936;SDS011;14495;48.116;11.676;2022-10-01T12:14:47;2.20;;;1.23;;
26936;SDS011;14495;48.116;11.676;2022-10-01T12:19:56;2.25;;;1.48;;
26936;SDS011;14495;48.116;11.676;2022-10-01T12:22:25;2.70;;;1.63;;
26936;SDS011;14495;48.116;11.676;2022-10-01T12:24:57;3.17;;;1.90;;
26936;SDS011;14495;48.116;11.676;2022-10-01T12:27:27;3.80;;;1.80;;
26936;SDS011;14495;48.116;11.676;2022-10-01T12:30:10;1.60;;;1.10;;
26936;SDS011;14495;48.116;11.676;2022-10-01T12:35:08;2.45;;;1.42;;
26936;SDS011;14495;48.116;11.676;2022-10-01T12:40:50;1.45;;;1.15;;
26936;SDS011;14495;48.116;11.676;2022-10-01T12:43:24;2.35;;;1.30;;
26936;SDS011;14495;48.116;11.676;2022-10-01T12:46:17;1.95;;;1.10;;
26936;SDS011;14495;48.116;11.676;2022-10-01T12:48:54;1.98;;;1.00;;
26936;SDS011;14495;48.116;11.676;2022-10-01T12:51:43;2.08;;;1.17;;
26936;SDS011;14495;48.116;11.676;2022-10-01T12:54:18;2.55;;;1.55;;
26936;SDS011;14495;48.116;11.676;2022-10-01T12:59:58;2.83;;;1.65;;
26936;SDS011;14495;48.116;11.676;2022-10-01T13:13:28;1.30;;;1.03;;
26936;SDS011;14495;48.116;11.676;2022-10-01T13:16:05;1.75;;;1.30;;
26936;SDS011;14495;48.116;11.676;2022-10-01T13:18:53;1.70;;;1.45;;
26936;SDS011;14495;48.116;11.676;2022-10-01T13:24:13;2.78;;;1.70;;
26936;SDS011;14495;48.116;11.676;2022-10-01T13:29:27;1.98;;;1.35;;
26936;SDS011;14495;48.116;11.676;2022-10-01T13:32:26;2.67;;;1.25;;
26936;SDS011;14495;48.116;11.676;2022-10-01T13:34:52;2.45;;;1.40;;
26936;SDS011;14495;48.116;11.676;2022-10-01T13:37:30;1.48;;;1.10;;
26936;SDS011;14495;48.116;11.676;2022-10-01T13:39:56;1.20;;;1.10;;
26936;SDS011;14495;48.116;11.676;2022-10-01T13:47:23;1.97;;;1.00;;
26936;SDS011;14495;48.116;11.676;2022-10-01T13:49:54;1.70;;;1.05;;
26936;SDS011;14495;48.116;11.676;2022-10-01T13:52:22;2.72;;;0.80;;
26936;SDS011;14495;48.116;11.676;2022-10-01T13:54:48;1.08;;;0.98;;
26936;SDS011;14495;48.116;11.676;2022-10-01T14:00:02;1.63;;;0.85;;
26936;SDS011;14495;48.116;11.676;2022-10-01T14:02:33;1.00;;;0.75;;
26936;SDS011;14495;48.116;11.676;2022-10-01T14:07:51;0.75;;;0.68;;
26936;SDS011;14495;48.116;11.676;2022-10-01T14:10:23;1.10;;;0.75;;
26936;SDS011;14495;48.116;11.676;2022-10-01T14:12:58;1.15;;;0.80;;
26936;SDS011;14495;48.116;11.676;2022-10-01T14:15:46;0.75;;;0.70;;
26936;SDS011;14495;48.116;11.676;2022-10-01T14:18:29;1.05;;;0.95;;
26936;SDS011;14495;48.116;11.676;2022-10-01T14:23:55;0.85;;;0.80;;
26936;SDS011;14495;48.116;11.676;2022-10-01T14:29:32;1.17;;;0.73;;
26936;SDS011;14495;48.116;11.676;2022-10-01T14:37:24;3.35;;;1.27;;
26936;SDS011;14495;48.116;11.676;2022-10-01T14:40:01;2.10;;;0.90;;
26936;SDS011;14495;48.116;11.676;2022-10-01T14:42:38;1.00;;;0.90;;
26936;SDS011;14495;48.116;11.676;2022-10-01T14:45:13;1.90;;;0.90;;
26936;SDS011;14495;48.116;11.676;2022-10-01T14:47:40;1.10;;;0.85;;
26936;SDS011;14495;48.116;11.676;2022-10-01T14:50:14;1.25;;;0.90;;
26936;SDS011;14495;48.116;11.676;2022-10-01T14:52:44;2.05;;;1.13;;
26936;SDS011;14495;48.116;11.676;2022-10-01T14:55:13;1.00;;;0.75;;
26936;SDS011;14495;48.116;11.676;2022-10-01T14:57:42;1.17;;;0.90;;
26936;SDS011;14495;48.116;11.676;2022-10-01T15:00:14;0.80;;;0.80;;
26936;SDS011;14495;48.116;11.676;2022-10-01T15:02:45;2.03;;;1.00;;
26936;SDS011;14495;48.116;11.676;2022-10-01T15:07:44;1.17;;;0.80;;
26936;SDS011;14495;48.116;11.676;2022-10-01T15:10:11;1.17;;;0.80;;
26936;SDS011;14495;48.116;11.676;2022-10-01T15:12:41;1.50;;;1.13;;
26936;SDS011;14495;48.116;11.676;2022-10-01T15:15:20;3.88;;;0.90;;
26936;SDS011;14495;48.116;11.676;2022-10-01T15:17:50;1.35;;;0.80;;
26936;SDS011;14495;48.116;11.676;2022-10-01T15:20:16;1.42;;;1.00;;
26936;SDS011;14495;48.116;11.676;2022-10-01T15:22:45;1.42;;;0.90;;
26936;SDS011;14495;48.116;11.676;2022-10-01T15:25:46;1.40;;;0.80;;
26936;SDS011;14495;48.116;11.676;2022-10-01T15:28:13;2.85;;;1.08;;
26936;SDS011;14495;48.116;11.676;2022-10-01T15:30:39;1.17;;;0.80;;
26936;SDS011;14495;48.116;11.676;2022-10-01T15:33:12;1.00;;;0.80;;
26936;SDS011;14495;48.116;11.676;2022-10-01T15:35:51;1.17;;;0.90;;
26936;SDS011;14495;48.116;11.676;2022-10-01T15:38:17;1.10;;;1.00;;
26936;SDS011;14495;48.116;11.676;2022-10-01T15:40:43;1.63;;;0.70;;
26936;SDS011;14495;48.116;11.676;2022-10-01T15:43:20;3.22;;;0.85;;
26936;SDS011;14495;48.116;11.676;2022-10-01T15:48:33;1.10;;;0.80;;
26936;SDS011;14495;48.116;11.676;2022-10-01T15:51:00;2.17;;;1.05;;
26936;SDS011;14495;48.116;11.676;2022-10-01T15:53:27;1.88;;;1.15;;
26936;SDS011;14495;48.116;11.676;2022-10-01T15:55:54;1.75;;;1.00;;
26936;SDS011;14495;48.116;11.676;2022-10-01T16:00:54;2.90;;;1.45;;
26936;SDS011;14495;48.116;11.676;2022-10-01T16:06:02;1.25;;;0.90;;
26936;SDS011;14495;48.116;11.676;2022-10-01T16:08:30;1.33;;;1.00;;
26936;SDS011;14495;48.116;11.676;2022-10-01T16:13:44;1.40;;;1.02;;
26936;SDS011;14495;48.116;11.676;2022-10-01T16:18:36;1.75;;;0.95;;
26936;SDS011;14495;48.116;11.676;2022-10-01T16:21:02;1.60;;;0.93;;
26936;SDS011;14495;48.116;11.676;2022-10-01T16:26:41;2.15;;;1.30;;
26936;SDS011;14495;48.116;11.676;2022-10-01T16:31:36;1.80;;;1.27;;
26936;SDS011;14495;48.116;11.676;2022-10-01T16:34:11;2.13;;;1.27;;
26936;SDS011;14495;48.116;11.676;2022-10-01T16:36:38;2.00;;;1.33;;
26936;SDS011;14495;48.116;11.676;2022-10-01T16:39:04;1.38;;;1.00;;
26936;SDS011;14495;48.116;11.676;2022-10-01T16:41:30;1.98;;;1.30;;
26936;SDS011;14495;48.116;11.676;2022-10-01T16:43:58;1.33;;;0.95;;
26936;SDS011;14495;48.116;11.676;2022-10-01T16:46:25;1.85;;;1.10;;
26936;SDS011;14495;48.116;11.676;2022-10-01T16:48:50;2.20;;;1.33;;
26936;SDS011;14495;48.116;11.676;2022-10-01T16:51:16;2.55;;;1.48;;
26936;SDS011;14495;48.116;11.676;2022-10-01T16:53:42;1.27;;;1.00;;
26936;SDS011;14495;48.116;11.676;2022-10-01T16:56:08;1.70;;;1.10;;
26936;SDS011;14495;48.116;11.676;2022-10-01T16:58:35;4.65;;;1.30;;
26936;SDS011;14495;48.116;11.676;2022-10-01T17:01:03;1.60;;;1.00;;
26936;SDS011;14495;48.116;11.676;2022-10-01T17:03:31;0.82;;;0.82;;
26936;SDS011;14495;48.116;11.676;2022-10-01T17:05:57;2.00;;;1.30;;
26936;SDS011;14495;48.116;11.676;2022-10-01T17:08:22;1.55;;;1.05;;
26936;SDS011;14495;48.116;11.676;2022-10-01T17:10:51;1.83;;;1.20;;
26936;SDS011;14495;48.116;11.676;2022-10-01T17:13:21;1.73;;;1.10;;
26936;SDS011;14495;48.116;11.676;2022-10-01T17:15:47;1.40;;;1.00;;
26936;SDS011;14495;48.116;11.676;2022-10-01T17:18:14;1.88;;;1.20;;
26936;SDS011;14495;48.116;11.676;2022-10-01T17:20:39;1.00;;;0.77;;
26936;SDS011;14495;48.116;11.676;2022-10-01T17:23:05;1.52;;;0.90;;
26936;SDS011;14495;48.116;11.676;2022-10-01T17:25:31;1.17;;;0.90;;